Pagrindinis puslapis
METAR-TAF:

METAR-TAF

Oro uostai :

Pensakola, Florida, Jungtinės Amerikos Valstijos

platuma: 30-21-22N, ilguma: 087-19-24W, Aukštis: 9 m

Dabartinis oras

Ataskaita buvo paskelbta 37 minutes, ne 15:56 UTC
Vėjas 7 kt iš Šiaurės
Temperatūra 15°C
Drėgmė 88%
Slėgis 1023 hPa
Matomumas: 16.1 km
Apsiniaukę ne aukštis 900 ft

METAR: KNPA 071556Z 36007KT 10SM OVC009 15/13 A3020 RMK AO2 SLP226 T01500133

Laikas: 10:33 (16:33 UTC)

Prognozė

Prognozė galioja nuo 07 metu 07 UTC su 08 metu 07 UTC
Vėjas 6 kt nuo kintamojo kryptimis
Matomumas 10 km arba daugiau
Apsiniaukę ne aukštis 400 ft
Laikinai
nuo 07 metu 11 UTC su 07 metu 14 UTC
Matomumas: 6000 m
rūkana
Laikinai
nuo 07 metu 14 UTC su 07 metu 16 UTC
Matomumas: 0735 m
rūkas

TAF: KNPA 0707/0807 VRB06KT 9999 OVC004 QNH3005INS TEMPO 0711/0714 6000 BR TEMPO 0714/0716 1400 FG T13/0712Z T18/0720Z COR 0735 FN00218

Orai ataskaitas ir orų prognozės (METAR, TAF).

turimą stotys yra geltonos ir raudonos taškus žemėlapyje.

Perkelti pele per norėdami pamatyti stoties vardą.

Tada spustelėkite, norėdami matyti oro stebėjimo ir prognozės.

Norėdami pakeisti žemėlapį: spustelėkite ant žalios mygtukų su juodo kryžiaus žemyn,; žalią mygtuką su brūkšneliu, jei norite nutolinti; arba žalių rodyklių gretimoms žemėlapius.


METAR-TAF: